sensor_id;sensor_type;location;lat;lon;timestamp;pressure;altitude;pressure_sealevel;temperature;humidity
10587;BME280;5341;47.606;7.576;2022-10-31T00:01:24;99248.91;;;18.95;57.08
10587;BME280;5341;47.606;7.576;2022-10-31T00:03:52;99248.09;;;18.95;57.07
10587;BME280;5341;47.606;7.576;2022-10-31T00:06:20;99253.75;;;18.93;57.08
10587;BME280;5341;47.606;7.576;2022-10-31T00:08:52;99249.38;;;18.92;56.83
10587;BME280;5341;47.606;7.576;2022-10-31T00:11:20;99253.97;;;18.92;56.91
10587;BME280;5341;47.606;7.576;2022-10-31T00:13:48;99248.78;;;18.90;56.97
10587;BME280;5341;47.606;7.576;2022-10-31T00:16:15;99251.69;;;18.89;57.07
10587;BME280;5341;47.606;7.576;2022-10-31T00:18:47;99257.34;;;18.87;57.04
10587;BME280;5341;47.606;7.576;2022-10-31T00:21:15;99254.63;;;18.87;56.88
10587;BME280;5341;47.606;7.576;2022-10-31T00:23:42;99242.34;;;18.85;56.93
10587;BME280;5341;47.606;7.576;2022-10-31T00:26:12;99242.59;;;18.83;57.03
10587;BME280;5341;47.606;7.576;2022-10-31T00:28:39;99242.81;;;18.82;56.95
10587;BME280;5341;47.606;7.576;2022-10-31T00:31:08;99241.97;;;18.81;56.92
10587;BME280;5341;47.606;7.576;2022-10-31T00:33:37;99235.97;;;18.79;56.93
10587;BME280;5341;47.606;7.576;2022-10-31T00:36:07;99244.28;;;18.78;56.97
10587;BME280;5341;47.606;7.576;2022-10-31T00:38:35;99241.81;;;18.76;56.88
10587;BME280;5341;47.606;7.576;2022-10-31T00:41:03;99242.88;;;18.75;57.07
10587;BME280;5341;47.606;7.576;2022-10-31T00:43:34;99246.63;;;18.74;56.98
10587;BME280;5341;47.606;7.576;2022-10-31T00:46:03;99246.84;;;18.72;56.97
10587;BME280;5341;47.606;7.576;2022-10-31T00:48:30;99244.38;;;18.71;56.93
10587;BME280;5341;47.606;7.576;2022-10-31T00:50:58;99233.75;;;18.69;56.84
10587;BME280;5341;47.606;7.576;2022-10-31T00:53:26;99238.59;;;18.67;56.77
10587;BME280;5341;47.606;7.576;2022-10-31T00:55:54;99240.47;;;18.67;56.96
10587;BME280;5341;47.606;7.576;2022-10-31T00:58:22;99248.78;;;18.65;56.87
10587;BME280;5341;47.606;7.576;2022-10-31T01:00:51;99244.41;;;18.64;56.85
10587;BME280;5341;47.606;7.576;2022-10-31T01:03:22;99238.38;;;18.62;56.84
10587;BME280;5341;47.606;7.576;2022-10-31T01:05:57;99240.25;;;18.62;56.84
10587;BME280;5341;47.606;7.576;2022-10-31T01:08:25;99232.34;;;18.60;56.83
10587;BME280;5341;47.606;7.576;2022-10-31T01:11:02;99229.03;;;18.58;56.94
10587;BME280;5341;47.606;7.576;2022-10-31T01:13:32;99226.56;;;18.57;57.02
10587;BME280;5341;47.606;7.576;2022-10-31T01:16:05;99231.16;;;18.56;56.81
10587;BME280;5341;47.606;7.576;2022-10-31T01:18:33;99230.53;;;18.54;56.78
10587;BME280;5341;47.606;7.576;2022-10-31T01:21:03;99224.50;;;18.52;56.85
10587;BME280;5341;47.606;7.576;2022-10-31T01:23:31;99223.66;;;18.52;56.85
10587;BME280;5341;47.606;7.576;2022-10-31T01:26:01;99219.31;;;18.51;56.78
10587;BME280;5341;47.606;7.576;2022-10-31T01:28:29;99220.59;;;18.48;56.78
10587;BME280;5341;47.606;7.576;2022-10-31T01:31:02;99223.28;;;18.48;56.81
10587;BME280;5341;47.606;7.576;2022-10-31T01:33:29;99228.09;;;18.46;56.65
10587;BME280;5341;47.606;7.576;2022-10-31T01:35:57;99224.56;;;18.45;56.74
10587;BME280;5341;47.606;7.576;2022-10-31T01:38:25;99224.81;;;18.44;56.79
10587;BME280;5341;47.606;7.576;2022-10-31T01:40:53;99214.38;;;18.41;56.68
10587;BME280;5341;47.606;7.576;2022-10-31T01:43:21;99222.50;;;18.41;56.60
10587;BME280;5341;47.606;7.576;2022-10-31T01:45:51;99218.16;;;18.40;56.76
10587;BME280;5341;47.606;7.576;2022-10-31T01:48:25;99218.38;;;18.38;56.76
10587;BME280;5341;47.606;7.576;2022-10-31T01:50:57;99216.72;;;18.37;56.81
10587;BME280;5341;47.606;7.576;2022-10-31T01:53:25;99224.00;;;18.37;56.67
10587;BME280;5341;47.606;7.576;2022-10-31T01:55:53;99216.13;;;18.35;56.77
10587;BME280;5341;47.606;7.576;2022-10-31T01:58:23;99214.47;;;18.34;56.63
10587;BME280;5341;47.606;7.576;2022-10-31T02:00:56;99211.97;;;18.33;56.59
10587;BME280;5341;47.606;7.576;2022-10-31T02:03:26;99206.78;;;18.31;56.77
10587;BME280;5341;47.606;7.576;2022-10-31T02:05:57;99206.78;;;18.31;56.78
10587;BME280;5341;47.606;7.576;2022-10-31T02:08:27;99197.00;;;18.30;56.70
10587;BME280;5341;47.606;7.576;2022-10-31T02:10:56;99199.09;;;18.28;56.66
10587;BME280;5341;47.606;7.576;2022-10-31T02:13:25;99197.44;;;18.27;56.85
10587;BME280;5341;47.606;7.576;2022-10-31T02:15:57;99200.34;;;18.26;56.64
10587;BME280;5341;47.606;7.576;2022-10-31T02:18:29;99196.81;;;18.25;56.68
10587;BME280;5341;47.606;7.576;2022-10-31T02:21:07;99197.88;;;18.24;56.62
10587;BME280;5341;47.606;7.576;2022-10-31T02:24:05;99189.97;;;18.23;56.62
10587;BME280;5341;47.606;7.576;2022-10-31T02:26:52;99189.16;;;18.22;56.69
10587;BME280;5341;47.606;7.576;2022-10-31T02:32:28;99182.53;;;18.18;56.73
10587;BME280;5341;47.606;7.576;2022-10-31T02:35:08;99187.94;;;18.18;56.74
10587;BME280;5341;47.606;7.576;2022-10-31T02:37:41;99183.78;;;18.15;56.67
10587;BME280;5341;47.606;7.576;2022-10-31T02:40:17;99181.28;;;18.14;56.85
10587;BME280;5341;47.606;7.576;2022-10-31T02:43:12;99179.63;;;18.13;56.59
10587;BME280;5341;47.606;7.576;2022-10-31T02:45:44;99184.22;;;18.12;56.67
10587;BME280;5341;47.606;7.576;2022-10-31T02:48:19;99175.50;;;18.10;56.75
10587;BME280;5341;47.606;7.576;2022-10-31T02:50:53;99173.03;;;18.09;56.73
10587;BME280;5341;47.606;7.576;2022-10-31T02:53:23;99173.25;;;18.07;56.84
10587;BME280;5341;47.606;7.576;2022-10-31T02:55:58;99172.41;;;18.07;56.79
10587;BME280;5341;47.606;7.576;2022-10-31T02:58:30;99177.00;;;18.06;56.95
10587;BME280;5341;47.606;7.576;2022-10-31T03:01:14;99175.34;;;18.05;56.89
10587;BME280;5341;47.606;7.576;2022-10-31T03:04:13;99175.34;;;18.05;56.88
10587;BME280;5341;47.606;7.576;2022-10-31T03:06:48;99167.41;;;18.04;56.76
10587;BME280;5341;47.606;7.576;2022-10-31T03:09:23;99167.22;;;18.05;56.81
10587;BME280;5341;47.606;7.576;2022-10-31T03:11:58;99168.25;;;18.04;56.85
10587;BME280;5341;47.606;7.576;2022-10-31T03:14:34;99168.25;;;18.04;56.84
10587;BME280;5341;47.606;7.576;2022-10-31T03:17:08;99166.59;;;18.03;56.98
10587;BME280;5341;47.606;7.576;2022-10-31T03:19:42;99165.78;;;18.03;56.74
10587;BME280;5341;47.606;7.576;2022-10-31T03:22:16;99163.06;;;18.03;56.87
10587;BME280;5341;47.606;7.576;2022-10-31T03:24:45;99166.00;;;18.01;57.00
10587;BME280;5341;47.606;7.576;2022-10-31T03:27:15;99166.00;;;18.01;56.90
10587;BME280;5341;47.606;7.576;2022-10-31T03:29:46;99166.22;;;18.00;56.96
10587;BME280;5341;47.606;7.576;2022-10-31T03:32:17;99165.38;;;17.99;56.90
10587;BME280;5341;47.606;7.576;2022-10-31T03:34:50;99163.72;;;17.98;57.03
10587;BME280;5341;47.606;7.576;2022-10-31T03:37:21;99161.25;;;17.97;56.85
10587;BME280;5341;47.606;7.576;2022-10-31T03:39:49;99163.13;;;17.96;57.02
10587;BME280;5341;47.606;7.576;2022-10-31T03:42:23;99153.34;;;17.95;56.90
10587;BME280;5341;47.606;7.576;2022-10-31T03:44:53;99161.69;;;17.94;56.93
10587;BME280;5341;47.606;7.576;2022-10-31T03:47:23;99159.00;;;17.94;56.92
10587;BME280;5341;47.606;7.576;2022-10-31T03:49:54;99161.88;;;17.92;56.86
10587;BME280;5341;47.606;7.576;2022-10-31T03:52:25;99159.19;;;17.92;56.78
10587;BME280;5341;47.606;7.576;2022-10-31T03:54:59;99156.69;;;17.91;56.82
10587;BME280;5341;47.606;7.576;2022-10-31T03:57:33;99148.81;;;17.89;56.90
10587;BME280;5341;47.606;7.576;2022-10-31T04:00:07;99146.56;;;17.86;56.75
10587;BME280;5341;47.606;7.576;2022-10-31T04:02:49;99144.91;;;17.85;56.98
10587;BME280;5341;47.606;7.576;2022-10-31T04:05:22;99136.19;;;17.83;56.89
10587;BME280;5341;47.606;7.576;2022-10-31T04:07:54;99140.75;;;17.82;57.09
10587;BME280;5341;47.606;7.576;2022-10-31T04:10:26;99142.63;;;17.82;56.95
10587;BME280;5341;47.606;7.576;2022-10-31T04:13:03;99135.34;;;17.82;57.00
10587;BME280;5341;47.606;7.576;2022-10-31T04:15:44;99132.88;;;17.81;56.73
10587;BME280;5341;47.606;7.576;2022-10-31T04:18:14;99133.69;;;17.81;57.03
10587;BME280;5341;47.606;7.576;2022-10-31T04:20:44;99140.13;;;17.80;56.89
10587;BME280;5341;47.606;7.576;2022-10-31T04:23:18;99143.88;;;17.79;56.84
10587;BME280;5341;47.606;7.576;2022-10-31T04:25:47;99143.06;;;17.79;57.19
10587;BME280;5341;47.606;7.576;2022-10-31T04:28:17;99134.09;;;17.78;56.94
10587;BME280;5341;47.606;7.576;2022-10-31T04:30:46;99143.88;;;17.79;57.06
10587;BME280;5341;47.606;7.576;2022-10-31T04:33:14;99136.22;;;17.76;57.09
10587;BME280;5341;47.606;7.576;2022-10-31T04:35:50;99148.69;;;17.77;56.95
10587;BME280;5341;47.606;7.576;2022-10-31T04:38:21;99138.09;;;17.76;57.20
10587;BME280;5341;47.606;7.576;2022-10-31T04:40:49;99150.78;;;17.75;57.02
10587;BME280;5341;47.606;7.576;2022-10-31T04:43:53;99153.72;;;17.74;57.14
10587;BME280;5341;47.606;7.576;2022-10-31T04:46:21;99144.78;;;17.73;57.19
10587;BME280;5341;47.606;7.576;2022-10-31T04:48:49;99143.13;;;17.72;57.01
10587;BME280;5341;47.606;7.576;2022-10-31T04:51:22;99149.34;;;17.73;57.20
10587;BME280;5341;47.606;7.576;2022-10-31T04:53:51;99147.69;;;17.72;56.90
10587;BME280;5341;47.606;7.576;2022-10-31T04:56:28;99151.47;;;17.71;57.15
10587;BME280;5341;47.606;7.576;2022-10-31T04:59:01;99150.63;;;17.70;57.11
10587;BME280;5341;47.606;7.576;2022-10-31T05:01:40;99139.13;;;17.68;56.98
10587;BME280;5341;47.606;7.576;2022-10-31T05:04:09;99146.44;;;17.68;57.14
10587;BME280;5341;47.606;7.576;2022-10-31T05:06:40;99142.06;;;17.67;57.04
10587;BME280;5341;47.606;7.576;2022-10-31T05:09:08;99145.81;;;17.66;57.06
10587;BME280;5341;47.606;7.576;2022-10-31T05:11:37;99140.41;;;17.66;57.20
10587;BME280;5341;47.606;7.576;2022-10-31T05:14:19;99143.34;;;17.64;56.88
10587;BME280;5341;47.606;7.576;2022-10-31T05:17:22;99133.56;;;17.63;57.25
10587;BME280;5341;47.606;7.576;2022-10-31T05:20:18;99130.50;;;17.60;57.02
10587;BME280;5341;47.606;7.576;2022-10-31T05:23:10;99139.66;;;17.58;57.22
10587;BME280;5341;47.606;7.576;2022-10-31T05:25:41;99140.69;;;17.57;57.09
10587;BME280;5341;47.606;7.576;2022-10-31T05:28:12;99134.47;;;17.57;57.12
10587;BME280;5341;47.606;7.576;2022-10-31T05:30:41;99137.16;;;17.57;57.25
10587;BME280;5341;47.606;7.576;2022-10-31T05:33:13;99126.34;;;17.57;57.13
10587;BME280;5341;47.606;7.576;2022-10-31T05:36:01;99135.47;;;17.56;57.10
10587;BME280;5341;47.606;7.576;2022-10-31T05:38:39;99131.94;;;17.55;57.00
10587;BME280;5341;47.606;7.576;2022-10-31T05:41:12;99130.28;;;17.54;57.07
10587;BME280;5341;47.606;7.576;2022-10-31T05:43:45;99131.94;;;17.55;57.24
10587;BME280;5341;47.606;7.576;2022-10-31T05:46:16;99133.00;;;17.54;57.36
10587;BME280;5341;47.606;7.576;2022-10-31T05:49:10;99133.22;;;17.53;57.02
10587;BME280;5341;47.606;7.576;2022-10-31T05:51:57;99129.69;;;17.52;57.15
10587;BME280;5341;47.606;7.576;2022-10-31T05:54:37;99122.63;;;17.51;57.38
10587;BME280;5341;47.606;7.576;2022-10-31T05:57:05;99123.66;;;17.50;57.38
10587;BME280;5341;47.606;7.576;2022-10-31T05:59:37;99129.91;;;17.51;57.39
10587;BME280;5341;47.606;7.576;2022-10-31T06:02:06;99124.72;;;17.49;57.46
10587;BME280;5341;47.606;7.576;2022-10-31T06:04:55;99116.59;;;17.49;57.21
10587;BME280;5341;47.606;7.576;2022-10-31T06:07:23;99126.59;;;17.49;57.22
10587;BME280;5341;47.606;7.576;2022-10-31T06:09:53;99113.91;;;17.49;57.14
10587;BME280;5341;47.606;7.576;2022-10-31T06:12:22;99120.38;;;17.48;57.20
10587;BME280;5341;47.606;7.576;2022-10-31T06:15:09;99123.06;;;17.48;57.42
10587;BME280;5341;47.606;7.576;2022-10-31T06:17:38;99120.59;;;17.47;57.13
10587;BME280;5341;47.606;7.576;2022-10-31T06:20:23;99116.22;;;17.46;57.32
10587;BME280;5341;47.606;7.576;2022-10-31T06:23:04;99122.47;;;17.46;57.19
10587;BME280;5341;47.606;7.576;2022-10-31T06:25:37;99121.41;;;17.47;57.14
10587;BME280;5341;47.606;7.576;2022-10-31T06:28:12;99114.34;;;17.46;57.30
10587;BME280;5341;47.606;7.576;2022-10-31T06:30:51;99116.22;;;17.46;57.45
10587;BME280;5341;47.606;7.576;2022-10-31T06:33:20;99112.69;;;17.45;57.43
10587;BME280;5341;47.606;7.576;2022-10-31T06:36:05;99112.69;;;17.45;57.13
10587;BME280;5341;47.606;7.576;2022-10-31T06:38:33;99116.22;;;17.46;57.33
10587;BME280;5341;47.606;7.576;2022-10-31T06:41:05;99119.75;;;17.46;57.37
10587;BME280;5341;47.606;7.576;2022-10-31T06:43:46;99119.97;;;17.45;57.00
10587;BME280;5341;47.606;7.576;2022-10-31T06:46:36;99115.41;;;17.45;57.29
10587;BME280;5341;47.606;7.576;2022-10-31T06:49:24;99132.44;;;17.46;57.34
10587;BME280;5341;47.606;7.576;2022-10-31T06:51:59;99133.28;;;17.46;57.37
10587;BME280;5341;47.606;7.576;2022-10-31T06:54:27;99134.09;;;17.47;57.22
10587;BME280;5341;47.606;7.576;2022-10-31T06:56:57;99134.09;;;17.47;57.22
10587;BME280;5341;47.606;7.576;2022-10-31T06:59:24;99136.81;;;17.47;57.40
10587;BME280;5341;47.606;7.576;2022-10-31T07:02:13;99142.22;;;17.47;57.41
10587;BME280;5341;47.606;7.576;2022-10-31T07:04:43;99147.63;;;17.47;57.42
10587;BME280;5341;47.606;7.576;2022-10-31T07:07:14;99144.09;;;17.46;57.42
10587;BME280;5341;47.606;7.576;2022-10-31T07:09:43;99148.44;;;17.47;57.37
10587;BME280;5341;47.606;7.576;2022-10-31T07:12:15;99145.75;;;17.47;57.56
10587;BME280;5341;47.606;7.576;2022-10-31T07:14:52;99146.34;;;17.49;57.57
10587;BME280;5341;47.606;7.576;2022-10-31T07:17:23;99142.59;;;17.50;57.49
10587;BME280;5341;47.606;7.576;2022-10-31T07:19:54;99160.47;;;17.51;57.49
10587;BME280;5341;47.606;7.576;2022-10-31T07:22:22;99159.22;;;17.54;57.24
10587;BME280;5341;47.606;7.576;2022-10-31T07:24:50;99160.03;;;17.54;57.21
10587;BME280;5341;47.606;7.576;2022-10-31T07:27:43;99166.06;;;17.56;57.62
10587;BME280;5341;47.606;7.576;2022-10-31T07:30:13;99165.03;;;17.57;57.43
10587;BME280;5341;47.606;7.576;2022-10-31T07:32:44;99162.94;;;17.60;57.60
10587;BME280;5341;47.606;7.576;2022-10-31T07:35:16;99161.06;;;17.60;57.40
10587;BME280;5341;47.606;7.576;2022-10-31T07:37:52;99158.13;;;17.62;57.29
10587;BME280;5341;47.606;7.576;2022-10-31T07:40:21;99160.63;;;17.63;57.24
10587;BME280;5341;47.606;7.576;2022-10-31T07:42:52;99160.41;;;17.65;57.54
10587;BME280;5341;47.606;7.576;2022-10-31T07:45:53;99171.81;;;17.67;57.45
10587;BME280;5341;47.606;7.576;2022-10-31T07:48:39;99172.66;;;17.67;57.56
10587;BME280;5341;47.606;7.576;2022-10-31T07:51:25;99162.88;;;17.66;57.48
10587;BME280;5341;47.606;7.576;2022-10-31T07:54:12;99166.84;;;17.64;57.59
10587;BME280;5341;47.606;7.576;2022-10-31T07:56:39;99174.53;;;17.67;57.57
10587;BME280;5341;47.606;7.576;2022-10-31T07:59:10;99177.00;;;17.68;57.62
10587;BME280;5341;47.606;7.576;2022-10-31T08:01:39;99181.22;;;17.71;57.72
10587;BME280;5341;47.606;7.576;2022-10-31T08:04:36;99179.13;;;17.73;57.81
10587;BME280;5341;47.606;7.576;2022-10-31T08:07:22;99172.66;;;17.74;57.63
10587;BME280;5341;47.606;7.576;2022-10-31T08:09:57;99170.16;;;17.72;57.62
10587;BME280;5341;47.606;7.576;2022-10-31T08:12:29;99183.47;;;17.74;57.69
10587;BME280;5341;47.606;7.576;2022-10-31T08:14:58;99174.31;;;17.75;57.77
10587;BME280;5341;47.606;7.576;2022-10-31T08:17:27;99174.09;;;17.76;57.80
10587;BME280;5341;47.606;7.576;2022-10-31T08:19:57;99165.97;;;17.76;57.63
10587;BME280;5341;47.606;7.576;2022-10-31T08:22:34;99171.16;;;17.78;57.45
10587;BME280;5341;47.606;7.576;2022-10-31T08:25:02;99166.34;;;17.80;57.71
10587;BME280;5341;47.606;7.576;2022-10-31T08:27:30;99162.63;;;17.81;57.58
10587;BME280;5341;47.606;7.576;2022-10-31T08:30:01;99159.47;;;17.84;57.60
10587;BME280;5341;47.606;7.576;2022-10-31T08:32:31;99150.53;;;17.83;57.55
10587;BME280;5341;47.606;7.576;2022-10-31T08:35:17;99140.75;;;17.82;57.50
10587;BME280;5341;47.606;7.576;2022-10-31T08:38:03;99142.63;;;17.82;57.44
10587;BME280;5341;47.606;7.576;2022-10-31T08:40:32;99134.31;;;17.83;57.68
10587;BME280;5341;47.606;7.576;2022-10-31T08:43:03;99120.78;;;17.83;57.81
10587;BME280;5341;47.606;7.576;2022-10-31T08:45:34;99120.31;;;17.86;57.75
10587;BME280;5341;47.606;7.576;2022-10-31T08:48:06;99124.47;;;17.89;57.80
10587;BME280;5341;47.606;7.576;2022-10-31T08:50:36;99125.28;;;17.90;57.71
10587;BME280;5341;47.606;7.576;2022-10-31T08:53:05;99127.75;;;17.91;57.84
10587;BME280;5341;47.606;7.576;2022-10-31T08:55:34;99124.84;;;17.93;57.76
10587;BME280;5341;47.606;7.576;2022-10-31T08:58:12;99123.81;;;17.94;57.74
10587;BME280;5341;47.606;7.576;2022-10-31T09:00:50;99125.25;;;17.96;57.96
10587;BME280;5341;47.606;7.576;2022-10-31T09:03:21;99116.91;;;17.98;57.91
10587;BME280;5341;47.606;7.576;2022-10-31T09:05:50;99118.34;;;18.00;57.90
10587;BME280;5341;47.606;7.576;2022-10-31T09:08:18;99114.34;;;18.03;58.03
10587;BME280;5341;47.606;7.576;2022-10-31T09:10:47;99114.94;;;18.05;57.90
10587;BME280;5341;47.606;7.576;2022-10-31T09:13:21;99114.53;;;18.08;57.72
10587;BME280;5341;47.606;7.576;2022-10-31T09:16:09;99120.31;;;18.11;57.86
10587;BME280;5341;47.606;7.576;2022-10-31T09:18:36;99122.56;;;18.14;57.78
10587;BME280;5341;47.606;7.576;2022-10-31T09:21:04;99114.03;;;18.18;57.74
10587;BME280;5341;47.606;7.576;2022-10-31T09:23:33;99114.41;;;18.21;57.95
10587;BME280;5341;47.606;7.576;2022-10-31T09:26:01;99112.06;;;18.25;57.68
10587;BME280;5341;47.606;7.576;2022-10-31T09:28:46;99119.75;;;18.28;57.93
10587;BME280;5341;47.606;7.576;2022-10-31T09:31:18;99112.03;;;18.31;57.96
10587;BME280;5341;47.606;7.576;2022-10-31T09:33:57;99100.50;;;18.36;57.97
10587;BME280;5341;47.606;7.576;2022-10-31T09:36:38;99097.34;;;18.39;57.68
10587;BME280;5341;47.606;7.576;2022-10-31T09:39:13;99095.84;;;18.43;57.93
10587;BME280;5341;47.606;7.576;2022-10-31T09:42:06;99097.06;;;18.47;57.95
10587;BME280;5341;47.606;7.576;2022-10-31T09:44:46;99097.44;;;18.51;57.86
10587;BME280;5341;47.606;7.576;2022-10-31T09:47:39;99093.22;;;18.55;57.61
10587;BME280;5341;47.606;7.576;2022-10-31T09:50:42;99097.38;;;18.57;57.76
10587;BME280;5341;47.606;7.576;2022-10-31T09:53:37;99089.00;;;18.59;57.70
10587;BME280;5341;47.606;7.576;2022-10-31T09:56:11;99092.09;;;18.62;57.71
10587;BME280;5341;47.606;7.576;2022-10-31T09:58:42;99091.88;;;18.64;57.54
10587;BME280;5341;47.606;7.576;2022-10-31T10:01:21;99085.22;;;18.66;57.64
10587;BME280;5341;47.606;7.576;2022-10-31T10:03:54;99089.13;;;18.70;57.63
10587;BME280;5341;47.606;7.576;2022-10-31T10:06:47;99098.88;;;18.71;57.69
10587;BME280;5341;47.606;7.576;2022-10-31T10:09:36;99101.75;;;18.77;58.05
10587;BME280;5341;47.606;7.576;2022-10-31T10:12:47;99096.94;;;18.79;58.25
10587;BME280;5341;47.606;7.576;2022-10-31T10:15:34;99098.13;;;18.83;58.49
10587;BME280;5341;47.606;7.576;2022-10-31T10:18:13;99099.31;;;18.87;58.74
10587;BME280;5341;47.606;7.576;2022-10-31T10:20:54;99106.31;;;18.94;58.99
10587;BME280;5341;47.606;7.576;2022-10-31T10:23:34;99101.88;;;19.00;59.16
10587;BME280;5341;47.606;7.576;2022-10-31T10:26:13;99098.03;;;19.08;59.09
10587;BME280;5341;47.606;7.576;2022-10-31T10:28:46;99096.25;;;19.13;58.36
10587;BME280;5341;47.606;7.576;2022-10-31T10:31:16;99099.72;;;19.20;58.14
10587;BME280;5341;47.606;7.576;2022-10-31T10:33:58;99112.97;;;19.28;58.79
10587;BME280;5341;47.606;7.576;2022-10-31T10:36:33;99117.22;;;19.36;58.80
10587;BME280;5341;47.606;7.576;2022-10-31T10:39:09;99117.16;;;19.43;58.71
10587;BME280;5341;47.606;7.576;2022-10-31T10:41:41;99105.59;;;19.47;58.30
10587;BME280;5341;47.606;7.576;2022-10-31T10:44:11;99102.22;;;19.52;58.25
10587;BME280;5341;47.606;7.576;2022-10-31T10:46:42;99083.94;;;19.59;58.36
10587;BME280;5341;47.606;7.576;2022-10-31T10:49:32;99074.06;;;19.65;57.84
10587;BME280;5341;47.606;7.576;2022-10-31T10:52:10;99068.53;;;19.71;57.84
10587;BME280;5341;47.606;7.576;2022-10-31T10:54:49;99054.03;;;19.77;57.93
10587;BME280;5341;47.606;7.576;2022-10-31T10:57:47;99054.97;;;19.83;57.70
10587;BME280;5341;47.606;7.576;2022-10-31T11:00:22;99050.50;;;19.88;57.65
10587;BME280;5341;47.606;7.576;2022-10-31T11:02:53;99041.63;;;19.93;57.39
10587;BME280;5341;47.606;7.576;2022-10-31T11:05:33;99035.50;;;19.98;57.36
10587;BME280;5341;47.606;7.576;2022-10-31T11:08:05;99026.06;;;20.00;57.33
10587;BME280;5341;47.606;7.576;2022-10-31T11:10:35;99028.31;;;20.03;57.22
10587;BME280;5341;47.606;7.576;2022-10-31T11:13:21;99016.13;;;20.06;56.94
10587;BME280;5341;47.606;7.576;2022-10-31T11:15:54;99008.56;;;20.08;56.90
10587;BME280;5341;47.606;7.576;2022-10-31T11:18:25;99014.13;;;20.13;57.01
10587;BME280;5341;47.606;7.576;2022-10-31T11:20:55;99001.72;;;20.17;57.05
10587;BME280;5341;47.606;7.576;2022-10-31T11:23:26;98999.72;;;20.24;57.11
10587;BME280;5341;47.606;7.576;2022-10-31T11:25:57;99004.53;;;20.34;57.61
10587;BME280;5341;47.606;7.576;2022-10-31T11:28:27;98999.56;;;20.42;57.20
10587;BME280;5341;47.606;7.576;2022-10-31T11:30:57;98996.50;;;20.51;57.08
10587;BME280;5341;47.606;7.576;2022-10-31T11:33:29;98995.06;;;20.60;56.34
10587;BME280;5341;47.606;7.576;2022-10-31T11:35:59;98994.91;;;20.66;56.55
10587;BME280;5341;47.606;7.576;2022-10-31T11:38:33;98982.00;;;20.73;56.46
10587;BME280;5341;47.606;7.576;2022-10-31T11:41:09;98979.69;;;20.82;56.78
10587;BME280;5341;47.606;7.576;2022-10-31T11:43:40;98973.06;;;20.90;56.53
10587;BME280;5341;47.606;7.576;2022-10-31T11:46:17;98959.91;;;20.98;56.64
10587;BME280;5341;47.606;7.576;2022-10-31T11:48:47;98959.72;;;21.05;56.41
10587;BME280;5341;47.606;7.576;2022-10-31T11:51:20;98943.78;;;21.09;55.48
10587;BME280;5341;47.606;7.576;2022-10-31T11:53:54;98946.00;;;21.12;55.31
10587;BME280;5341;47.606;7.576;2022-10-31T11:56:23;98939.78;;;21.16;55.58
10587;BME280;5341;47.606;7.576;2022-10-31T11:58:55;98927.94;;;21.22;55.56
10587;BME280;5341;47.606;7.576;2022-10-31T12:01:25;98927.47;;;21.25;55.29
10587;BME280;5341;47.606;7.576;2022-10-31T12:04:00;98918.81;;;21.28;55.70
10587;BME280;5341;47.606;7.576;2022-10-31T12:06:33;98914.53;;;21.32;55.86
10587;BME280;5341;47.606;7.576;2022-10-31T12:09:16;98914.94;;;21.41;56.35
10587;BME280;5341;47.606;7.576;2022-10-31T12:14:37;98922.16;;;21.69;56.06
10587;BME280;5341;47.606;7.576;2022-10-31T12:17:13;98921.47;;;21.79;55.63
10587;BME280;5341;47.606;7.576;2022-10-31T12:19:46;98916.41;;;21.87;55.20
10587;BME280;5341;47.606;7.576;2022-10-31T12:22:20;98926.06;;;21.95;55.50
10587;BME280;5341;47.606;7.576;2022-10-31T12:28:07;98908.00;;;22.06;55.47
10587;BME280;5341;47.606;7.576;2022-10-31T12:30:51;98905.00;;;22.07;55.71
10587;BME280;5341;47.606;7.576;2022-10-31T12:33:55;98896.63;;;22.14;55.62
10587;BME280;5341;47.606;7.576;2022-10-31T12:36:44;98883.91;;;22.19;56.14
10587;BME280;5341;47.606;7.576;2022-10-31T12:39:34;98868.94;;;22.22;56.01
10587;BME280;5341;47.606;7.576;2022-10-31T12:42:15;98861.34;;;22.24;56.59
10587;BME280;5341;47.606;7.576;2022-10-31T12:47:55;98849.88;;;22.22;55.23
10587;BME280;5341;47.606;7.576;2022-10-31T12:50:37;98846.59;;;22.20;56.40
10587;BME280;5341;47.606;7.576;2022-10-31T12:53:21;98844.69;;;22.20;56.68
10587;BME280;5341;47.606;7.576;2022-10-31T12:56:05;98836.56;;;22.26;56.44
10587;BME280;5341;47.606;7.576;2022-10-31T12:58:40;98832.31;;;22.35;56.23
10587;BME280;5341;47.606;7.576;2022-10-31T13:01:14;98823.09;;;22.41;56.61
10587;BME280;5341;47.606;7.576;2022-10-31T13:03:48;98812.78;;;22.43;56.04
10587;BME280;5341;47.606;7.576;2022-10-31T13:06:21;98812.78;;;22.43;55.78
10587;BME280;5341;47.606;7.576;2022-10-31T13:08:56;98801.06;;;22.42;55.83
10587;BME280;5341;47.606;7.576;2022-10-31T13:11:28;98803.53;;;22.44;56.33
10587;BME280;5341;47.606;7.576;2022-10-31T13:14:04;98799.72;;;22.45;56.18
10587;BME280;5341;47.606;7.576;2022-10-31T13:16:37;98812.81;;;22.48;55.42
10587;BME280;5341;47.606;7.576;2022-10-31T13:19:10;98802.72;;;22.48;54.82
10587;BME280;5341;47.606;7.576;2022-10-31T13:21:42;98801.13;;;22.52;55.03
10587;BME280;5341;47.606;7.576;2022-10-31T13:24:16;98795.19;;;22.56;55.76
10587;BME280;5341;47.606;7.576;2022-10-31T13:26:51;98788.38;;;22.58;55.69
10587;BME280;5341;47.606;7.576;2022-10-31T13:29:26;98783.47;;;22.60;55.79
10587;BME280;5341;47.606;7.576;2022-10-31T13:31:56;98787.03;;;22.61;55.99
10587;BME280;5341;47.606;7.576;2022-10-31T13:34:26;98769.84;;;22.60;55.13
10587;BME280;5341;47.606;7.576;2022-10-31T13:37:00;98758.41;;;22.58;54.91
10587;BME280;5341;47.606;7.576;2022-10-31T13:39:44;98742.31;;;22.57;53.99
10587;BME280;5341;47.606;7.576;2022-10-31T13:42:20;98745.28;;;22.55;53.47
10587;BME280;5341;47.606;7.576;2022-10-31T13:44:52;98740.34;;;22.52;52.92
10587;BME280;5341;47.606;7.576;2022-10-31T13:47:25;98738.44;;;22.52;52.55
10587;BME280;5341;47.606;7.576;2022-10-31T13:50:04;98728.13;;;22.55;51.63
10587;BME280;5341;47.606;7.576;2022-10-31T13:52:32;98718.84;;;22.56;51.65
10587;BME280;5341;47.606;7.576;2022-10-31T13:55:00;98721.59;;;22.56;51.47
10587;BME280;5341;47.606;7.576;2022-10-31T13:57:31;98715.06;;;22.57;50.74
10587;BME280;5341;47.606;7.576;2022-10-31T14:00:05;98713.69;;;22.54;49.81
10587;BME280;5341;47.606;7.576;2022-10-31T14:02:45;98709.81;;;22.50;49.21